createdAt,value
2023-04-29T00:00:11.437Z,28.70
2023-04-29T00:02:39.668Z,30.10
2023-04-29T00:05:10.982Z,25.93
2023-04-29T00:07:39.412Z,24.43
2023-04-29T00:10:08.036Z,26.97
2023-04-29T00:12:36.179Z,26.50
2023-04-29T00:15:04.708Z,23.53
2023-04-29T00:17:32.935Z,27.50
2023-04-29T00:20:01.206Z,29.17
2023-04-29T00:22:30.785Z,28.70
2023-04-29T00:24:58.948Z,21.87
2023-04-29T00:27:27.471Z,26.87
2023-04-29T00:29:57.140Z,21.37
2023-04-29T00:32:25.373Z,24.87
2023-04-29T00:34:53.751Z,34.53
2023-04-29T00:37:21.944Z,23.57
2023-04-29T00:39:51.609Z,26.27
2023-04-29T00:42:20.049Z,25.30
2023-04-29T00:44:48.207Z,20.13
2023-04-29T00:47:16.493Z,23.40
2023-04-29T00:49:45.101Z,24.93
2023-04-29T00:52:13.987Z,24.97
2023-04-29T00:54:42.933Z,25.73
2023-04-29T00:57:12.524Z,27.23
2023-04-29T00:59:41.030Z,19.00
2023-04-29T01:02:09.453Z,19.60
2023-04-29T01:04:37.710Z,23.30
2023-04-29T01:07:11.512Z,23.03
2023-04-29T01:09:55.104Z,19.97
2023-04-29T01:12:28.056Z,21.17
2023-04-29T01:15:00.610Z,20.53
2023-04-29T01:17:32.211Z,24.53
2023-04-29T01:20:00.647Z,22.30
2023-04-29T01:22:29.572Z,21.77
2023-04-29T01:24:59.227Z,20.43
2023-04-29T01:27:30.659Z,19.13
2023-04-29T01:30:01.984Z,21.27
2023-04-29T01:32:35.720Z,20.60
2023-04-29T01:35:10.134Z,19.07
2023-04-29T01:37:43.056Z,20.53
2023-04-29T01:40:14.554Z,24.57
2023-04-29T01:42:47.292Z,24.03
2023-04-29T01:45:17.482Z,24.50
2023-04-29T01:47:46.750Z,23.63
2023-04-29T01:50:14.889Z,20.90
2023-04-29T01:52:43.042Z,23.40
2023-04-29T01:55:12.664Z,20.17
2023-04-29T01:57:40.891Z,21.07
2023-04-29T02:00:11.610Z,21.60
2023-04-29T02:02:39.933Z,20.87
2023-04-29T02:05:08.901Z,23.97
2023-04-29T02:07:37.037Z,24.03
2023-04-29T02:10:05.868Z,24.93
2023-04-29T02:12:35.564Z,20.33
2023-04-29T02:15:03.718Z,18.83
2023-04-29T02:17:31.982Z,24.53
2023-04-29T02:20:00.188Z,20.40
2023-04-29T02:22:28.313Z,21.47
2023-04-29T02:24:56.486Z,20.93
2023-04-29T02:27:24.644Z,18.47
2023-04-29T02:29:54.431Z,17.33
2023-04-29T02:32:22.651Z,18.33
2023-04-29T02:34:51.760Z,21.17
2023-04-29T02:37:19.868Z,18.50
2023-04-29T02:39:48.187Z,21.97
2023-04-29T02:42:16.383Z,24.20
2023-04-29T02:44:44.556Z,18.43
2023-04-29T02:47:14.260Z,18.53
2023-04-29T02:49:42.411Z,20.80
2023-04-29T02:52:10.584Z,16.17
2023-04-29T02:54:39.022Z,18.20
2023-04-29T02:57:07.953Z,17.03
2023-04-29T02:59:36.145Z,19.67
2023-04-29T03:02:04.635Z,16.07
2023-04-29T03:04:34.261Z,16.47
2023-04-29T03:07:02.761Z,16.10
2023-04-29T03:09:30.945Z,18.07
2023-04-29T03:11:59.048Z,16.90
2023-04-29T03:14:27.564Z,16.60
2023-04-29T03:16:56.406Z,17.30
2023-04-29T03:19:24.609Z,17.50
2023-04-29T03:21:54.220Z,16.33
2023-04-29T03:24:22.432Z,17.50
2023-04-29T03:26:50.588Z,17.17
2023-04-29T03:29:18.784Z,16.67
2023-04-29T03:31:47.066Z,16.13
2023-04-29T03:34:15.660Z,18.40
2023-04-29T03:36:43.770Z,16.67
2023-04-29T03:39:13.524Z,18.33
2023-04-29T03:41:41.885Z,18.10
2023-04-29T03:44:10.070Z,16.43
2023-04-29T03:46:38.359Z,15.70
2023-04-29T03:49:06.792Z,18.57
2023-04-29T03:51:34.941Z,17.27
2023-04-29T03:54:03.118Z,16.57
2023-04-29T03:56:32.577Z,18.57
2023-04-29T03:59:00.771Z,18.30
2023-04-29T04:01:28.916Z,17.43
2023-04-29T04:03:57.641Z,16.63
2023-04-29T04:06:26.079Z,19.33
2023-04-29T04:08:54.211Z,17.17
2023-04-29T04:11:22.454Z,15.73
2023-04-29T04:13:52.068Z,17.13
2023-04-29T04:16:20.262Z,15.43
2023-04-29T04:18:48.472Z,15.13
2023-04-29T04:21:16.640Z,18.43
2023-04-29T04:23:45.030Z,17.00
2023-04-29T04:26:13.246Z,15.40
2023-04-29T04:28:41.394Z,15.47
2023-04-29T04:31:11.033Z,16.43
2023-04-29T04:33:39.238Z,18.00
2023-04-29T04:36:07.869Z,20.47
2023-04-29T04:38:36.130Z,20.67
2023-04-29T04:41:04.357Z,18.27
2023-04-29T04:43:32.568Z,19.30
2023-04-29T04:46:00.751Z,20.20
2023-04-29T04:48:30.576Z,17.73
2023-04-29T04:50:58.716Z,20.57
2023-04-29T04:53:27.334Z,19.70
2023-04-29T04:55:55.540Z,19.10
2023-04-29T04:58:23.739Z,18.37
2023-04-29T05:00:53.510Z,17.93
2023-04-29T05:03:21.945Z,18.93
2023-04-29T05:05:55.974Z,22.00
2023-04-29T05:08:24.153Z,19.93
2023-04-29T05:10:54.037Z,22.27
2023-04-29T05:13:22.571Z,19.30
2023-04-29T05:15:50.679Z,27.80
2023-04-29T05:18:19.062Z,21.17
2023-04-29T05:20:47.194Z,24.00
2023-04-29T05:23:16.714Z,22.83
2023-04-29T05:25:44.870Z,24.97
2023-04-29T05:28:13.033Z,23.90
2023-04-29T05:30:41.680Z,21.30
2023-04-29T05:33:09.954Z,22.60
2023-04-29T05:35:38.176Z,24.03
2023-04-29T05:38:06.553Z,26.07
2023-04-29T05:40:36.044Z,23.43
2023-04-29T05:43:04.171Z,22.67
2023-04-29T05:45:32.288Z,25.37
2023-04-29T05:48:00.490Z,23.63
2023-04-29T05:50:28.638Z,25.00
2023-04-29T05:52:57.412Z,26.27
2023-04-29T05:55:25.650Z,27.63
2023-04-29T05:57:55.786Z,32.50
2023-04-29T06:00:24.165Z,28.40
2023-04-29T06:02:58.698Z,29.23
2023-04-29T06:05:27.795Z,31.33
2023-04-29T06:07:56.266Z,28.37
2023-04-29T06:10:24.618Z,28.57
2023-04-29T06:12:52.937Z,31.17
2023-04-29T06:15:22.465Z,26.53
2023-04-29T06:17:50.642Z,29.63
2023-04-29T06:20:18.800Z,27.40
2023-04-29T06:22:47.458Z,31.20
2023-04-29T06:25:15.583Z,24.70
2023-04-29T06:27:43.955Z,25.80
2023-04-29T06:30:12.603Z,24.27
2023-04-29T06:32:42.263Z,23.83
2023-04-29T06:35:10.881Z,23.60
2023-04-29T06:37:39.048Z,18.30
2023-04-29T06:40:07.917Z,19.00
2023-04-29T06:42:36.701Z,22.33
2023-04-29T06:45:05.224Z,21.40
2023-04-29T06:47:33.403Z,19.63
2023-04-29T06:50:03.176Z,19.97
2023-04-29T06:52:32.078Z,19.20
2023-04-29T06:55:00.732Z,17.00
2023-04-29T06:57:28.973Z,18.70
2023-04-29T06:59:57.103Z,19.03
2023-04-29T07:02:25.453Z,16.23
2023-04-29T07:04:53.875Z,19.80
2023-04-29T07:07:23.461Z,18.07
2023-04-29T07:09:53.648Z,15.83
2023-04-29T07:12:22.002Z,15.57
2023-04-29T07:14:50.149Z,14.87
2023-04-29T07:17:18.598Z,14.07
2023-04-29T07:19:46.738Z,13.47
2023-04-29T07:22:14.938Z,12.93
2023-04-29T07:24:50.850Z,12.33
2023-04-29T07:27:19.225Z,14.00
2023-04-29T07:29:47.571Z,14.43
2023-04-29T07:32:15.967Z,11.60
2023-04-29T07:34:44.522Z,12.90
2023-04-29T07:37:12.952Z,14.53
2023-04-29T07:39:42.578Z,14.53
2023-04-29T07:42:12.209Z,10.17
2023-04-29T07:44:40.555Z,11.17
2023-04-29T07:47:08.917Z,13.70
2023-04-29T07:49:37.480Z,11.60
2023-04-29T07:52:07.794Z,12.33
2023-04-29T07:54:36.316Z,15.30
2023-04-29T07:57:04.634Z,13.17
2023-04-29T07:59:34.509Z,16.70
2023-04-29T08:02:02.881Z,14.83
2023-04-29T08:04:31.416Z,16.37
2023-04-29T08:07:00.148Z,17.03
2023-04-29T08:09:28.477Z,17.70
2023-04-29T08:11:56.762Z,13.87
2023-04-29T08:14:25.047Z,12.03
2023-04-29T08:16:55.050Z,12.60
2023-04-29T08:19:23.302Z,10.87
2023-04-29T08:21:52.138Z,11.87
2023-04-29T08:24:22.321Z,14.10
2023-04-29T08:26:51.126Z,13.50
2023-04-29T08:29:19.553Z,12.10
2023-04-29T08:31:47.996Z,11.23
2023-04-29T08:34:17.891Z,12.80
2023-04-29T08:36:46.144Z,12.90
2023-04-29T08:39:14.568Z,11.17
2023-04-29T08:41:44.215Z,8.97
2023-04-29T08:44:12.807Z,12.30
2023-04-29T08:46:41.267Z,9.17
2023-04-29T08:49:09.644Z,10.77
2023-04-29T08:51:39.258Z,10.00
2023-04-29T08:54:07.644Z,8.67
2023-04-29T08:56:36.040Z,8.57
2023-04-29T08:59:04.375Z,9.10
2023-04-29T09:01:32.716Z,10.47
2023-04-29T09:04:06.682Z,9.00
2023-04-29T09:06:34.954Z,9.97
2023-04-29T09:09:04.753Z,9.63
2023-04-29T09:11:33.462Z,9.30
2023-04-29T09:14:02.325Z,10.57
2023-04-29T09:16:30.651Z,13.40
2023-04-29T09:18:59.116Z,14.80
2023-04-29T09:21:28.358Z,10.53
2023-04-29T09:23:57.323Z,15.60
2023-04-29T09:26:26.985Z,11.27
2023-04-29T09:29:07.979Z,9.83
2023-04-29T09:31:36.581Z,12.37
2023-04-29T09:34:04.935Z,11.80
2023-04-29T09:36:37.764Z,12.27
2023-04-29T09:39:11.216Z,12.07
2023-04-29T09:41:42.168Z,7.97
2023-04-29T09:44:11.656Z,9.77
2023-04-29T09:46:40.233Z,10.10
2023-04-29T09:49:24.931Z,8.37
2023-04-29T09:51:56.677Z,8.30
2023-04-29T09:54:25.837Z,8.60
2023-04-29T09:56:55.727Z,10.13
2023-04-29T09:59:24.321Z,8.23
2023-04-29T10:01:53.179Z,8.23
2023-04-29T10:04:22.675Z,9.27
2023-04-29T10:06:51.587Z,9.43
2023-04-29T10:09:21.014Z,8.70
2023-04-29T10:11:50.724Z,7.77
2023-04-29T10:14:20.760Z,7.20
2023-04-29T10:16:49.838Z,6.63
2023-04-29T10:19:21.176Z,9.10
2023-04-29T10:21:50.883Z,7.90
2023-04-29T10:24:20.304Z,5.93
2023-04-29T10:26:49.096Z,7.90
2023-04-29T10:29:17.857Z,7.57
2023-04-29T10:31:48.542Z,9.37
2023-04-29T10:34:18.500Z,10.57
2023-04-29T10:36:47.231Z,9.23
2023-04-29T10:39:21.854Z,10.57
2023-04-29T10:41:50.721Z,9.27
2023-04-29T10:44:19.167Z,8.07
2023-04-29T10:46:48.916Z,8.53
2023-04-29T10:49:17.250Z,7.17
2023-04-29T10:51:46.471Z,7.80
2023-04-29T10:54:15.376Z,9.70
2023-04-29T10:56:44.754Z,8.70
2023-04-29T10:59:14.273Z,7.43
2023-04-29T11:01:47.280Z,8.10
2023-04-29T11:04:17.686Z,8.63
2023-04-29T11:06:47.375Z,8.63
2023-04-29T11:09:16.694Z,9.23
2023-04-29T11:11:45.477Z,8.57
2023-04-29T11:14:15.384Z,8.37
2023-04-29T11:16:50.440Z,6.33
2023-04-29T11:19:20.147Z,9.23
2023-04-29T11:21:48.834Z,7.60
2023-04-29T11:24:17.440Z,6.23
2023-04-29T11:26:46.373Z,8.80
2023-04-29T11:29:14.749Z,8.60
2023-04-29T11:31:42.940Z,7.67
2023-04-29T11:34:11.659Z,8.77
2023-04-29T11:36:41.176Z,9.17
2023-04-29T11:39:10.092Z,8.30
2023-04-29T11:41:39.802Z,9.27
2023-04-29T11:44:09.357Z,6.87
2023-04-29T11:46:37.534Z,8.63
2023-04-29T11:49:05.674Z,9.30
2023-04-29T11:51:33.845Z,8.70
2023-04-29T11:54:03.391Z,6.97
2023-04-29T11:56:31.698Z,8.90
2023-04-29T11:59:01.359Z,9.10
2023-04-29T12:01:29.543Z,8.93
2023-04-29T12:04:00.992Z,8.37
2023-04-29T12:06:30.345Z,8.23
2023-04-29T12:09:00.588Z,7.67
2023-04-29T12:11:30.192Z,11.80
2023-04-29T12:13:58.560Z,7.23
2023-04-29T12:16:29.639Z,6.68
2023-04-29T12:18:58.726Z,6.60
2023-04-29T12:21:27.467Z,9.02
2023-04-29T12:23:55.961Z,8.27
2023-04-29T12:26:24.849Z,9.68
2023-04-29T12:28:58.635Z,6.87
2023-04-29T12:31:33.541Z,10.53
2023-04-29T12:34:01.845Z,7.20
2023-04-29T12:36:30.324Z,10.45
2023-04-29T12:38:58.460Z,9.03
2023-04-29T12:41:37.998Z,8.07
2023-04-29T12:44:07.804Z,6.93
2023-04-29T12:46:36.983Z,9.13
2023-04-29T12:49:05.269Z,6.60
2023-04-29T12:51:34.107Z,9.00
2023-04-29T12:54:03.568Z,10.43
2023-04-29T12:56:31.899Z,9.00
2023-04-29T12:59:08.344Z,7.20
2023-04-29T13:01:36.716Z,7.10
2023-04-29T13:04:06.487Z,7.43
2023-04-29T13:06:39.276Z,9.65
2023-04-29T13:09:07.897Z,7.50
2023-04-29T13:11:36.967Z,9.23
2023-04-29T13:14:06.330Z,9.00
2023-04-29T13:16:36.737Z,7.38
2023-04-29T13:19:17.970Z,6.10
2023-04-29T13:21:53.104Z,7.90
2023-04-29T13:24:21.318Z,9.80
2023-04-29T13:26:52.267Z,6.88
2023-04-29T13:29:20.842Z,7.60
2023-04-29T13:31:50.471Z,5.57
2023-04-29T13:34:18.729Z,7.82
2023-04-29T13:36:47.168Z,8.32
2023-04-29T13:39:15.396Z,7.60
2023-04-29T13:41:45.862Z,6.40
2023-04-29T13:44:27.329Z,8.18
2023-04-29T13:47:01.529Z,6.03
2023-04-29T13:50:03.391Z,8.40
2023-04-29T13:55:13.620Z,10.50
2023-04-29T14:00:31.558Z,6.95
2023-04-29T14:05:33.930Z,5.75
2023-04-29T14:08:02.415Z,7.28
2023-04-29T14:10:31.139Z,7.90
2023-04-29T14:12:59.328Z,6.50
2023-04-29T14:15:27.478Z,5.43
2023-04-29T14:17:55.732Z,7.13
2023-04-29T14:20:25.363Z,5.75
2023-04-29T14:22:53.515Z,8.43
2023-04-29T14:25:21.712Z,6.80
2023-04-29T14:27:49.909Z,6.65
2023-04-29T14:30:18.064Z,6.00
2023-04-29T14:35:15.332Z,4.72
2023-04-29T14:37:44.915Z,9.30
2023-04-29T14:40:13.265Z,6.88
2023-04-29T14:42:41.484Z,6.55
2023-04-29T14:45:10.269Z,5.72
2023-04-29T14:47:38.783Z,5.32
2023-04-29T14:50:07.631Z,8.65
2023-04-29T14:52:36.060Z,5.28
2023-04-29T14:55:05.792Z,7.40
2023-04-29T14:57:33.894Z,7.75
2023-04-29T15:00:02.202Z,6.78
2023-04-29T15:02:30.588Z,8.63
2023-04-29T15:04:58.784Z,7.28
2023-04-29T15:07:28.405Z,6.38
2023-04-29T15:09:57.533Z,5.88
2023-04-29T15:12:26.963Z,6.75
2023-04-29T15:14:55.347Z,4.85
2023-04-29T15:17:23.682Z,7.00
2023-04-29T15:19:51.926Z,7.63
2023-04-29T15:22:20.047Z,7.72
2023-04-29T15:27:17.289Z,7.53
2023-04-29T15:29:47.171Z,6.18
2023-04-29T15:32:15.983Z,6.53
2023-04-29T15:34:44.182Z,6.68
2023-04-29T15:37:12.346Z,7.60
2023-04-29T15:39:40.595Z,6.95
2023-04-29T15:42:09.452Z,7.47
2023-04-29T15:44:37.602Z,9.65
2023-04-29T15:47:07.057Z,8.32
2023-04-29T15:49:35.274Z,6.85
2023-04-29T15:52:03.475Z,7.43
2023-04-29T15:54:31.714Z,7.60
2023-04-29T15:56:59.910Z,9.45
2023-04-29T15:59:28.449Z,6.38
2023-04-29T16:01:56.655Z,8.88
2023-04-29T16:04:26.363Z,6.63
2023-04-29T16:06:54.822Z,8.25
2023-04-29T16:09:23.032Z,7.68
2023-04-29T16:11:53.596Z,6.53
2023-04-29T16:14:21.754Z,6.22
2023-04-29T16:16:49.946Z,7.45
2023-04-29T16:19:18.304Z,7.10
2023-04-29T16:21:47.804Z,6.45
2023-04-29T16:24:16.725Z,5.93
2023-04-29T16:26:44.970Z,4.80
2023-04-29T16:29:13.373Z,6.03
2023-04-29T16:31:41.609Z,4.13
2023-04-29T16:34:09.827Z,5.53
2023-04-29T16:36:37.987Z,6.97
2023-04-29T16:39:08.666Z,5.82
2023-04-29T16:41:37.291Z,8.25
2023-04-29T16:44:05.494Z,5.88
2023-04-29T16:46:34.195Z,7.47
2023-04-29T16:49:02.905Z,4.75
2023-04-29T16:51:33.522Z,4.17
2023-04-29T16:54:01.728Z,7.13
2023-04-29T16:56:31.361Z,5.88
2023-04-29T16:59:00.130Z,3.72
2023-04-29T17:01:28.308Z,3.58
2023-04-29T17:03:57.016Z,3.45
2023-04-29T17:06:25.451Z,6.82
2023-04-29T17:08:53.650Z,4.40
2023-04-29T17:11:21.818Z,5.47
2023-04-29T17:13:51.345Z,4.82
2023-04-29T17:16:19.578Z,4.37
2023-04-29T17:18:47.872Z,4.70
2023-04-29T17:21:16.012Z,4.33
2023-04-29T17:23:44.192Z,6.80
2023-04-29T17:26:12.427Z,3.77
2023-04-29T17:28:40.540Z,5.03
2023-04-29T17:31:10.173Z,5.40
2023-04-29T17:33:39.791Z,3.93
2023-04-29T17:36:08.222Z,5.83
2023-04-29T17:38:36.531Z,5.18
2023-04-29T17:41:04.708Z,4.27
2023-04-29T17:43:35.368Z,4.75
2023-04-29T17:46:03.780Z,4.70
2023-04-29T17:48:33.444Z,5.43
2023-04-29T17:51:01.691Z,4.80
2023-04-29T17:53:29.857Z,3.87
2023-04-29T17:55:57.976Z,2.90
2023-04-29T17:58:28.697Z,2.97
2023-04-29T18:00:57.087Z,6.67
2023-04-29T18:03:27.264Z,3.63
2023-04-29T18:05:57.029Z,4.47
2023-04-29T18:08:25.472Z,2.40
2023-04-29T18:10:53.693Z,3.58
2023-04-29T18:13:21.856Z,2.07
2023-04-29T18:15:50.067Z,5.17
2023-04-29T18:18:18.346Z,4.75
2023-04-29T18:20:46.704Z,4.27
2023-04-29T18:23:16.245Z,2.40
2023-04-29T18:25:44.652Z,5.97
2023-04-29T18:28:23.527Z,5.07
2023-04-29T18:30:53.000Z,3.93
2023-04-29T18:33:21.403Z,3.27
2023-04-29T18:35:49.575Z,3.27
2023-04-29T18:38:19.114Z,5.03
2023-04-29T18:40:48.409Z,3.87
2023-04-29T18:43:18.134Z,3.07
2023-04-29T18:45:46.642Z,3.23
2023-04-29T18:48:15.005Z,2.77
2023-04-29T18:50:43.548Z,3.00
2023-04-29T18:53:11.776Z,5.47
2023-04-29T18:55:41.321Z,4.13
2023-04-29T18:58:10.231Z,4.07
2023-04-29T19:00:38.415Z,3.83
2023-04-29T19:03:06.936Z,3.50
2023-04-29T19:05:35.271Z,4.40
2023-04-29T19:08:03.484Z,4.13
2023-04-29T19:10:31.662Z,4.37
2023-04-29T19:13:01.153Z,3.43
2023-04-29T19:15:29.424Z,3.33
2023-04-29T19:17:57.577Z,4.40
2023-04-29T19:20:25.826Z,3.47
2023-04-29T19:22:54.086Z,5.53
2023-04-29T19:25:22.345Z,4.87
2023-04-29T19:27:51.021Z,4.83
2023-04-29T19:30:20.826Z,5.27
2023-04-29T19:32:49.432Z,6.33
2023-04-29T19:35:17.636Z,4.77
2023-04-29T19:37:45.819Z,4.47
2023-04-29T19:40:14.156Z,3.90
2023-04-29T19:42:42.282Z,3.20
2023-04-29T19:45:12.559Z,3.10
2023-04-29T19:47:42.128Z,6.00
2023-04-29T19:50:10.729Z,4.83
2023-04-29T19:52:38.919Z,4.87
2023-04-29T19:55:08.688Z,3.83
2023-04-29T19:57:38.021Z,4.93
2023-04-29T20:00:06.747Z,7.50
2023-04-29T20:02:35.198Z,8.07
2023-04-29T20:05:04.919Z,5.63
2023-04-29T20:07:33.117Z,5.97
2023-04-29T20:12:51.429Z,6.27
2023-04-29T20:15:19.675Z,4.60
2023-04-29T20:17:47.844Z,9.17
2023-04-29T20:20:17.408Z,7.33
2023-04-29T20:22:45.785Z,8.60
2023-04-29T20:25:14.277Z,7.83
2023-04-29T20:27:42.454Z,6.00
2023-04-29T20:30:11.474Z,4.93
2023-04-29T20:32:39.735Z,8.90
2023-04-29T20:35:08.241Z,5.63
2023-04-29T20:37:38.200Z,6.33
2023-04-29T20:40:06.858Z,7.47
2023-04-29T20:42:35.079Z,7.17
2023-04-29T20:45:03.271Z,9.43
2023-04-29T20:47:31.499Z,7.73
2023-04-29T20:49:59.686Z,7.47
2023-04-29T20:52:28.902Z,8.37
2023-04-29T20:54:58.730Z,6.97
2023-04-29T20:57:27.785Z,13.57
2023-04-29T20:59:56.151Z,8.53
2023-04-29T21:02:24.514Z,7.80
2023-04-29T21:04:52.786Z,6.73
2023-04-29T21:07:21.027Z,8.00
2023-04-29T21:09:50.214Z,8.73
2023-04-29T21:12:19.831Z,8.57
2023-04-29T21:14:48.064Z,7.93
2023-04-29T21:17:16.256Z,7.43
2023-04-29T21:19:44.377Z,9.73
2023-04-29T21:22:12.487Z,8.30
2023-04-29T21:24:40.606Z,10.20
2023-04-29T21:27:08.810Z,10.03
2023-04-29T21:29:40.798Z,7.40
2023-04-29T21:32:09.359Z,9.23
2023-04-29T21:34:37.560Z,7.87
2023-04-29T21:37:06.300Z,9.07
2023-04-29T21:39:34.508Z,10.43
2023-04-29T21:42:03.905Z,9.40
2023-04-29T21:44:32.100Z,10.03
2023-04-29T21:47:01.813Z,8.13
2023-04-29T21:49:30.019Z,8.77
2023-04-29T21:51:58.321Z,10.60
2023-04-29T21:54:26.450Z,8.00
2023-04-29T21:56:54.608Z,11.87
2023-04-29T21:59:22.828Z,9.93
2023-04-29T22:02:00.517Z,9.07
2023-04-29T22:04:30.222Z,10.33
2023-04-29T22:06:58.781Z,8.47
2023-04-29T22:09:26.988Z,11.57
2023-04-29T22:11:55.179Z,10.87
2023-04-29T22:14:23.365Z,11.77
2023-04-29T22:16:51.634Z,10.00
2023-04-29T22:19:19.757Z,13.23
2023-04-29T22:21:49.218Z,10.60
2023-04-29T22:24:17.416Z,10.77
2023-04-29T22:26:46.446Z,10.03
2023-04-29T22:29:14.642Z,14.57
2023-04-29T22:31:42.883Z,14.23
2023-04-29T22:34:11.065Z,13.30
2023-04-29T22:36:39.925Z,13.80
2023-04-29T22:39:09.446Z,12.93
2023-04-29T22:41:38.724Z,10.53
2023-04-29T22:44:06.869Z,12.33
2023-04-29T22:46:35.213Z,12.93
2023-04-29T22:49:03.512Z,11.00
2023-04-29T22:51:31.696Z,12.07
2023-04-29T22:53:59.822Z,10.97
2023-04-29T22:56:29.630Z,11.53
2023-04-29T22:58:57.879Z,14.53
2023-04-29T23:01:26.053Z,10.97
2023-04-29T23:03:54.234Z,13.50
2023-04-29T23:06:22.432Z,14.27
2023-04-29T23:08:50.600Z,12.47
2023-04-29T23:11:18.753Z,13.03
2023-04-29T23:13:48.685Z,13.70
2023-04-29T23:16:16.928Z,11.60
2023-04-29T23:18:45.133Z,13.83
2023-04-29T23:21:13.320Z,15.07
2023-04-29T23:23:41.430Z,12.97
2023-04-29T23:26:10.300Z,14.47
2023-04-29T23:28:38.514Z,13.90
2023-04-29T23:31:08.083Z,12.00
2023-04-29T23:33:36.217Z,12.43
2023-04-29T23:36:04.371Z,15.50
2023-04-29T23:38:32.611Z,15.50
2023-04-29T23:41:00.822Z,12.80
2023-04-29T23:43:28.997Z,14.20
2023-04-29T23:45:57.213Z,15.67
2023-04-29T23:48:26.724Z,16.13
2023-04-29T23:50:54.919Z,14.77
2023-04-29T23:53:23.085Z,13.67
2023-04-29T23:55:51.292Z,13.77
2023-04-29T23:58:19.505Z,15.20
